createdAt,value
2022-10-05T00:04:29.406Z,69.30
2022-10-05T00:09:33.929Z,69.30
2022-10-05T00:14:36.957Z,69.43
2022-10-05T00:19:40.046Z,69.53
2022-10-05T00:24:45.753Z,69.69
2022-10-05T00:29:51.507Z,69.95
2022-10-05T00:34:54.931Z,69.91
2022-10-05T00:39:57.781Z,70.01
2022-10-05T00:45:24.847Z,69.82
2022-10-05T00:50:57.680Z,69.74
2022-10-05T00:56:20.241Z,69.84
2022-10-05T01:02:13.151Z,69.78
2022-10-05T01:07:33.847Z,69.99
2022-10-05T01:13:23.668Z,70.17
2022-10-05T01:18:56.252Z,70.16
2022-10-05T01:24:43.597Z,70.03
2022-10-05T01:30:13.593Z,70.17
2022-10-05T01:35:41.194Z,70.66
2022-10-05T01:41:02.453Z,70.85
2022-10-05T01:46:14.332Z,70.61
2022-10-05T01:51:43.715Z,70.76
2022-10-05T01:57:25.509Z,70.81
2022-10-05T02:02:31.873Z,70.54
2022-10-05T02:07:45.721Z,70.50
2022-10-05T02:12:55.527Z,71.04
2022-10-05T02:18:07.477Z,71.33
2022-10-05T02:23:21.111Z,71.46
2022-10-05T02:28:51.871Z,71.28
2022-10-05T02:34:40.679Z,71.31
2022-10-05T02:40:22.382Z,70.90
2022-10-05T02:45:40.521Z,70.90
2022-10-05T02:51:15.712Z,71.23
2022-10-05T02:56:37.198Z,71.10
2022-10-05T03:01:48.785Z,71.23
2022-10-05T03:07:14.411Z,71.47
2022-10-05T03:12:48.872Z,71.52
2022-10-05T03:18:30.981Z,71.33
2022-10-05T03:23:56.769Z,71.29
2022-10-05T03:29:19.905Z,71.22
2022-10-05T03:34:50.931Z,71.55
2022-10-05T03:40:10.215Z,71.29
2022-10-05T03:45:24.069Z,71.36
2022-10-05T03:51:07.092Z,71.74
2022-10-05T03:56:38.882Z,71.60
2022-10-05T04:02:02.624Z,71.63
2022-10-05T04:07:11.162Z,71.62
2022-10-05T04:12:33.898Z,71.68
2022-10-05T04:17:46.204Z,71.80
2022-10-05T04:23:11.094Z,71.55
2022-10-05T04:28:32.213Z,71.78
2022-10-05T04:33:35.347Z,72.02
2022-10-05T04:38:52.532Z,71.98
2022-10-05T04:44:22.858Z,72.09
2022-10-05T04:50:00.255Z,72.03
2022-10-05T04:55:08.843Z,71.81
2022-10-05T05:00:31.169Z,71.94
2022-10-05T05:06:17.198Z,72.07
2022-10-05T05:11:42.514Z,72.30
2022-10-05T05:16:58.071Z,71.84
2022-10-05T05:22:36.913Z,71.69
2022-10-05T05:28:03.343Z,71.62
2022-10-05T05:33:34.440Z,71.93
2022-10-05T05:38:41.356Z,72.21
2022-10-05T05:44:23.154Z,72.17
2022-10-05T05:49:44.800Z,72.03
2022-10-05T05:55:17.185Z,71.91
2022-10-05T06:00:38.927Z,71.96
2022-10-05T06:05:58.453Z,71.97
2022-10-05T06:11:37.503Z,72.26
2022-10-05T06:16:58.573Z,72.09
2022-10-05T06:22:39.024Z,71.92
2022-10-05T06:28:12.131Z,72.24
2022-10-05T06:33:33.942Z,71.88
2022-10-05T06:39:26.454Z,71.92
2022-10-05T06:44:49.097Z,71.80
2022-10-05T06:50:38.290Z,71.56
2022-10-05T06:56:08.697Z,71.76
2022-10-05T07:01:20.236Z,71.74
2022-10-05T07:06:49.908Z,71.95
2022-10-05T07:12:08.041Z,71.48
2022-10-05T07:17:44.326Z,71.63
2022-10-05T07:23:19.869Z,71.50
2022-10-05T07:28:56.838Z,71.51
2022-10-05T07:34:29.949Z,71.18
2022-10-05T07:40:09.813Z,71.07
2022-10-05T07:45:46.110Z,71.57
2022-10-05T07:51:04.157Z,71.48
2022-10-05T07:56:29.749Z,71.51
2022-10-05T08:01:36.891Z,71.50
2022-10-05T08:06:54.406Z,71.50
2022-10-05T08:12:36.389Z,71.44
2022-10-05T08:18:02.993Z,71.79
2022-10-05T08:23:42.319Z,71.81
2022-10-05T08:29:19.396Z,71.98
2022-10-05T08:34:37.118Z,72.30
2022-10-05T08:39:49.437Z,72.21
2022-10-05T08:45:16.162Z,72.19
2022-10-05T08:50:48.640Z,72.19
2022-10-05T08:56:30.703Z,71.54
2022-10-05T09:02:27.095Z,70.63
2022-10-05T09:08:20.789Z,70.50
2022-10-05T09:14:01.194Z,70.77
2022-10-05T09:19:29.182Z,70.67
2022-10-05T09:25:12.097Z,70.57
2022-10-05T09:30:20.708Z,70.11
2022-10-05T09:36:09.847Z,69.96
2022-10-05T09:41:41.331Z,69.45
2022-10-05T09:47:02.230Z,70.03
2022-10-05T09:52:44.899Z,69.63
2022-10-05T09:58:23.308Z,69.52
2022-10-05T10:04:13.025Z,69.13
2022-10-05T10:09:36.590Z,69.12
2022-10-05T10:15:33.308Z,69.14
2022-10-05T10:20:45.149Z,69.42
2022-10-05T10:26:13.077Z,69.16
2022-10-05T10:31:54.727Z,69.29
2022-10-05T10:37:19.500Z,68.97
2022-10-05T10:42:53.885Z,69.23
2022-10-05T10:48:31.541Z,68.29
2022-10-05T10:54:18.414Z,68.12
2022-10-05T11:00:23.402Z,68.30
2022-10-05T11:06:22.363Z,68.78
2022-10-05T11:11:37.170Z,68.37
2022-10-05T11:17:23.544Z,68.15
2022-10-05T11:23:36.613Z,68.03
2022-10-05T11:29:26.898Z,67.88
2022-10-05T11:34:51.145Z,68.15
2022-10-05T11:40:18.121Z,68.82
2022-10-05T11:45:36.425Z,68.42
2022-10-05T11:51:09.042Z,68.56
2022-10-05T12:01:57.895Z,67.67
2022-10-05T12:07:44.242Z,67.66
2022-10-05T12:13:06.196Z,67.69
2022-10-05T12:18:18.545Z,67.63
2022-10-05T12:23:42.467Z,67.76
2022-10-05T12:29:08.338Z,67.77
2022-10-05T12:34:48.736Z,68.24
2022-10-05T12:40:01.617Z,68.22
2022-10-05T12:45:28.459Z,67.85
2022-10-05T12:50:41.147Z,68.05
2022-10-05T12:56:05.015Z,67.89
2022-10-05T13:01:34.200Z,67.53
2022-10-05T13:07:12.248Z,67.60
2022-10-05T13:12:36.119Z,67.62
2022-10-05T13:18:01.968Z,67.26
2022-10-05T13:23:25.349Z,67.30
2022-10-05T13:28:38.195Z,67.11
2022-10-05T13:34:25.930Z,66.83
2022-10-05T13:40:05.568Z,66.86
2022-10-05T13:45:23.261Z,67.25
2022-10-05T13:50:38.623Z,67.32
2022-10-05T13:55:57.121Z,67.43
2022-10-05T14:01:14.065Z,67.83
2022-10-05T14:06:30.297Z,67.72
2022-10-05T14:11:36.272Z,68.01
2022-10-05T14:16:56.108Z,67.64
2022-10-05T14:22:03.201Z,68.07
2022-10-05T14:27:31.370Z,67.86
2022-10-05T14:32:55.386Z,68.25
2022-10-05T14:38:02.506Z,68.21
2022-10-05T14:43:14.426Z,68.42
2022-10-05T14:48:17.316Z,68.07
2022-10-05T14:53:24.994Z,68.08
2022-10-05T14:59:04.494Z,68.74
2022-10-05T15:04:45.443Z,68.30
2022-10-05T15:10:27.037Z,68.56
2022-10-05T15:15:49.916Z,68.77
2022-10-05T15:22:07.566Z,68.64
2022-10-05T15:27:54.147Z,68.38
2022-10-05T15:33:09.088Z,68.17
2022-10-05T15:38:21.122Z,68.07
2022-10-05T15:43:25.039Z,68.87
2022-10-05T15:48:48.605Z,68.30
2022-10-05T15:55:03.366Z,68.20
2022-10-05T16:00:22.946Z,68.35
2022-10-05T16:06:02.683Z,68.92
2022-10-05T16:11:14.642Z,69.30
2022-10-05T16:16:36.809Z,69.38
2022-10-05T16:22:27.845Z,69.95
2022-10-05T16:27:45.437Z,70.05
2022-10-05T16:33:10.588Z,69.98
2022-10-05T16:38:35.042Z,70.16
2022-10-05T16:44:21.656Z,70.21
2022-10-05T16:50:04.363Z,70.62
2022-10-05T16:55:25.618Z,71.35
2022-10-05T17:00:47.236Z,71.13
2022-10-05T17:06:06.710Z,71.13
2022-10-05T17:11:52.563Z,71.21
2022-10-05T17:17:44.250Z,71.00
2022-10-05T17:23:16.017Z,71.37
2022-10-05T17:28:18.771Z,71.38
2022-10-05T17:33:33.314Z,71.24
2022-10-05T17:39:18.510Z,71.21
2022-10-05T17:44:24.969Z,71.16
2022-10-05T17:50:18.318Z,71.07
2022-10-05T17:55:38.632Z,71.35
2022-10-05T18:01:03.041Z,71.43
2022-10-05T18:06:28.606Z,71.51
2022-10-05T18:11:33.413Z,71.68
2022-10-05T18:17:04.430Z,71.58
2022-10-05T18:22:28.264Z,71.71
2022-10-05T18:28:12.373Z,71.71
2022-10-05T18:33:43.465Z,71.63
2022-10-05T18:39:08.536Z,71.63
2022-10-05T18:44:14.154Z,71.28
2022-10-05T18:49:32.001Z,71.05
2022-10-05T18:54:56.922Z,70.87
2022-10-05T19:00:10.878Z,70.96
2022-10-05T19:05:48.730Z,71.21
2022-10-05T19:11:01.034Z,71.62
2022-10-05T19:16:47.266Z,71.72
2022-10-05T19:22:33.224Z,72.01
2022-10-05T19:28:10.611Z,72.09
2022-10-05T19:33:37.722Z,71.67
2022-10-05T19:39:03.601Z,71.27
2022-10-05T19:44:54.062Z,71.40
2022-10-05T19:50:02.285Z,71.36
2022-10-05T19:55:23.400Z,71.58
2022-10-05T20:00:35.529Z,71.71
2022-10-05T20:05:40.014Z,71.54
2022-10-05T20:10:44.744Z,71.50
2022-10-05T20:16:35.532Z,71.48
2022-10-05T20:21:41.480Z,71.45
2022-10-05T20:27:05.005Z,71.56
2022-10-05T20:32:15.288Z,71.62
2022-10-05T20:37:20.169Z,71.40
2022-10-05T20:42:23.971Z,71.48
2022-10-05T20:47:27.055Z,71.50
2022-10-05T20:52:31.445Z,71.41
2022-10-05T20:57:34.770Z,71.44
2022-10-05T21:02:39.431Z,71.41
2022-10-05T21:07:42.378Z,71.49
2022-10-05T21:12:45.227Z,71.47
2022-10-05T21:17:48.092Z,71.39
2022-10-05T21:22:51.105Z,70.97
2022-10-05T21:27:54.361Z,70.87
2022-10-05T21:32:57.330Z,70.61
2022-10-05T21:38:00.223Z,70.33
2022-10-05T21:43:03.365Z,70.13
2022-10-05T21:48:06.624Z,70.04
2022-10-05T21:53:14.783Z,69.91
2022-10-05T21:58:21.487Z,69.84
2022-10-05T22:03:24.742Z,69.79
2022-10-05T22:08:30.696Z,69.35
2022-10-05T22:13:43.049Z,69.07
2022-10-05T22:18:46.704Z,69.28
2022-10-05T22:23:49.805Z,69.08
2022-10-05T22:28:55.619Z,68.94
2022-10-05T22:33:58.612Z,69.04
2022-10-05T22:39:01.623Z,69.16
2022-10-05T22:44:04.967Z,69.03
2022-10-05T22:49:07.909Z,69.10
2022-10-05T22:54:10.809Z,68.77
2022-10-05T22:59:13.815Z,68.79
2022-10-05T23:04:16.698Z,68.78
2022-10-05T23:09:19.553Z,68.62
2022-10-05T23:14:23.190Z,68.82
2022-10-05T23:19:26.096Z,68.97
2022-10-05T23:24:29.024Z,69.13
2022-10-05T23:29:31.918Z,69.02
2022-10-05T23:34:34.995Z,68.99
2022-10-05T23:39:37.856Z,68.98
2022-10-05T23:44:40.770Z,69.19
2022-10-05T23:49:43.701Z,68.98
2022-10-05T23:54:46.567Z,69.36
2022-10-05T23:59:52.352Z,69.63
